RYR264 CYYC-CYZF
Flight info
| Callsign | RYR264 |
|---|---|
| Flight time | 1h 57m |
| Altitude | 30000 |
| Route | AVROM Q933 MAPUX/N0469F320 DCT LISVA DCT GOREK |
| Aircraft | B738/M-SDE2E3FGHIRWXY/LB1 |
Departure
| Time | 2026-05-05 23:42 |
|---|---|
| Airport | Calgary International Airport (CYYC) |
Arrival
| Time | 2026-05-06 01:39 |
|---|---|
| Airport | Yellowknife International Airport (CYZF) |
| Time | Latitude | Longitude | Altitude | Speed | Heading |
|---|---|---|---|---|---|
| 2026-05-05 23:02 | 51.12901 | -114.00749 | 3558 ft | 0 kts | 276° |
| 2026-05-05 23:23 | 51.12900 | -114.00731 | 3577 ft | 2 kts | 276° |
| 2026-05-05 23:23 | 51.12898 | -114.00705 | 3558 ft | 2 kts | 276° |
| 2026-05-05 23:23 | 51.12896 | -114.00679 | 3552 ft | 2 kts | 277° |
| 2026-05-05 23:23 | 51.12895 | -114.00667 | 3553 ft | 0 kts | 277° |
| 2026-05-05 23:27 | 51.12895 | -114.00668 | 3553 ft | 0 kts | 277° |
| 2026-05-05 23:27 | 51.12896 | -114.00668 | 3553 ft | 0 kts | 277° |
| 2026-05-05 23:28 | 51.12896 | -114.00671 | 3553 ft | 1 kts | 277° |
| 2026-05-05 23:28 | 51.12896 | -114.00682 | 3553 ft | 0 kts | 263° |
| 2026-05-05 23:28 | 51.12895 | -114.00683 | 3553 ft | 0 kts | 250° |
| 2026-05-05 23:28 | 51.12889 | -114.00683 | 3557 ft | 1 kts | 176° |
| 2026-05-05 23:29 | 51.12878 | -114.00660 | 3558 ft | 4 kts | 127° |
| 2026-05-05 23:29 | 51.12855 | -114.00645 | 3558 ft | 1 kts | 170° |
| 2026-05-05 23:29 | 51.12854 | -114.00645 | 3558 ft | 0 kts | 170° |
| 2026-05-05 23:31 | 51.12853 | -114.00645 | 3558 ft | 2 kts | 170° |
| 2026-05-05 23:31 | 51.12851 | -114.00644 | 3558 ft | 1 kts | 171° |
| 2026-05-05 23:32 | 51.12817 | -114.00640 | 3558 ft | 9 kts | 176° |
| 2026-05-05 23:32 | 51.12769 | -114.00640 | 3557 ft | 9 kts | 181° |
| 2026-05-05 23:32 | 51.12687 | -114.00642 | 3557 ft | 15 kts | 180° |
| 2026-05-05 23:32 | 51.12613 | -114.00757 | 3558 ft | 20 kts | 268° |
| 2026-05-05 23:33 | 51.12611 | -114.01011 | 3558 ft | 26 kts | 268° |
| 2026-05-05 23:33 | 51.12603 | -114.01208 | 3558 ft | 13 kts | 263° |
| 2026-05-05 23:33 | 51.12602 | -114.01357 | 3558 ft | 17 kts | 269° |
| 2026-05-05 23:33 | 51.12558 | -114.01517 | 3557 ft | 19 kts | 221° |
| 2026-05-05 23:34 | 51.12421 | -114.01565 | 3558 ft | 23 kts | 180° |
| 2026-05-05 23:34 | 51.12257 | -114.01564 | 3555 ft | 24 kts | 180° |
| 2026-05-05 23:34 | 51.12100 | -114.01615 | 3555 ft | 16 kts | 215° |
| 2026-05-05 23:34 | 51.12021 | -114.01688 | 3558 ft | 12 kts | 213° |
| 2026-05-05 23:35 | 51.11959 | -114.01749 | 3555 ft | 9 kts | 211° |
| 2026-05-05 23:35 | 51.11908 | -114.01788 | 3557 ft | 7 kts | 194° |
| 2026-05-05 23:35 | 51.11864 | -114.01795 | 3557 ft | 5 kts | 183° |
| 2026-05-05 23:35 | 51.11834 | -114.01796 | 3557 ft | 3 kts | 180° |
| 2026-05-05 23:36 | 51.11823 | -114.01796 | 3556 ft | 0 kts | 180° |
| 2026-05-05 23:36 | 51.11819 | -114.01796 | 3557 ft | 3 kts | 180° |
| 2026-05-05 23:36 | 51.11777 | -114.01796 | 3558 ft | 8 kts | 180° |
| 2026-05-05 23:37 | 51.11706 | -114.01796 | 3557 ft | 14 kts | 180° |
| 2026-05-05 23:37 | 51.11595 | -114.01794 | 3558 ft | 18 kts | 179° |
| 2026-05-05 23:37 | 51.11461 | -114.01790 | 3558 ft | 21 kts | 179° |
| 2026-05-05 23:37 | 51.11303 | -114.01794 | 3556 ft | 24 kts | 184° |
| 2026-05-05 23:38 | 51.11121 | -114.01798 | 3558 ft | 27 kts | 180° |
| 2026-05-05 23:38 | 51.10923 | -114.01797 | 3558 ft | 30 kts | 179° |
| 2026-05-05 23:38 | 51.10702 | -114.01796 | 3558 ft | 33 kts | 180° |
| 2026-05-05 23:38 | 51.10478 | -114.01792 | 3554 ft | 27 kts | 180° |
| 2026-05-05 23:39 | 51.10291 | -114.01792 | 3558 ft | 26 kts | 180° |
| 2026-05-05 23:39 | 51.10121 | -114.01798 | 3557 ft | 23 kts | 181° |
| 2026-05-05 23:39 | 51.09971 | -114.01797 | 3558 ft | 20 kts | 180° |
| 2026-05-05 23:39 | 51.09838 | -114.01795 | 3558 ft | 18 kts | 179° |
| 2026-05-05 23:40 | 51.09722 | -114.01808 | 3558 ft | 16 kts | 205° |
| 2026-05-05 23:40 | 51.09691 | -114.01945 | 3558 ft | 13 kts | 271° |
| 2026-05-05 23:40 | 51.09692 | -114.02065 | 3560 ft | 9 kts | 271° |
| 2026-05-05 23:40 | 51.09717 | -114.02125 | 3560 ft | 6 kts | 334° |
| 2026-05-05 23:41 | 51.09749 | -114.02137 | 3560 ft | 5 kts | 353° |
| 2026-05-05 23:41 | 51.09959 | -114.02147 | 3559 ft | 65 kts | 0° |
| 2026-05-05 23:41 | 51.10652 | -114.02142 | 3557 ft | 131 kts | 2° |
| 2026-05-05 23:41 | 51.11732 | -114.02157 | 3679 ft | 174 kts | 2° |
| 2026-05-05 23:42 | 51.12998 | -114.02188 | 4291 ft | 190 kts | 1° |
| 2026-05-05 23:42 | 51.14363 | -114.02254 | 4972 ft | 200 kts | 359° |
| 2026-05-05 23:42 | 51.15807 | -114.02317 | 5468 ft | 212 kts | 357° |
| 2026-05-05 23:42 | 51.17267 | -114.02422 | 6236 ft | 205 kts | 359° |
| 2026-05-05 23:43 | 51.18736 | -114.02290 | 6548 ft | 223 kts | 18° |
| 2026-05-05 23:43 | 51.20157 | -114.01195 | 6933 ft | 233 kts | 27° |
| 2026-05-05 23:43 | 51.21656 | -113.99972 | 7170 ft | 253 kts | 25° |
| 2026-05-05 23:43 | 51.23286 | -113.98678 | 7651 ft | 266 kts | 25° |
| 2026-05-05 23:44 | 51.24947 | -113.97379 | 8468 ft | 267 kts | 24° |
| 2026-05-05 23:44 | 51.26629 | -113.96079 | 9235 ft | 271 kts | 23° |
| 2026-05-05 23:44 | 51.28344 | -113.94762 | 9994 ft | 275 kts | 22° |
| 2026-05-05 23:44 | 51.30094 | -113.93426 | 10518 ft | 287 kts | 22° |
| 2026-05-05 23:45 | 51.31973 | -113.92000 | 10696 ft | 310 kts | 22° |
| 2026-05-05 23:45 | 51.33984 | -113.90474 | 10917 ft | 331 kts | 22° |
| 2026-05-05 23:45 | 51.36123 | -113.88848 | 11165 ft | 348 kts | 22° |
| 2026-05-05 23:45 | 51.38327 | -113.87166 | 11747 ft | 354 kts | 22° |
| 2026-05-05 23:46 | 51.40552 | -113.85466 | 12577 ft | 352 kts | 22° |
| 2026-05-05 23:46 | 51.42763 | -113.83777 | 13390 ft | 352 kts | 22° |
| 2026-05-05 23:46 | 51.44981 | -113.82085 | 14132 ft | 353 kts | 22° |
| 2026-05-05 23:46 | 51.47205 | -113.80398 | 14809 ft | 353 kts | 20° |
| 2026-05-05 23:47 | 51.49500 | -113.79085 | 15554 ft | 348 kts | 11° |
| 2026-05-05 23:47 | 51.51853 | -113.78232 | 16295 ft | 346 kts | 10° |
| 2026-05-05 23:47 | 51.54204 | -113.77376 | 16937 ft | 347 kts | 11° |
| 2026-05-05 23:47 | 51.56563 | -113.76494 | 17610 ft | 348 kts | 11° |
| 2026-05-05 23:48 | 51.58923 | -113.75600 | 18306 ft | 348 kts | 11° |
| 2026-05-05 23:48 | 51.61273 | -113.74709 | 18917 ft | 348 kts | 11° |
| 2026-05-05 23:48 | 51.63642 | -113.73817 | 19360 ft | 352 kts | 11° |
| 2026-05-05 23:48 | 51.66038 | -113.72918 | 19782 ft | 356 kts | 11° |
| 2026-05-05 23:49 | 51.68454 | -113.72010 | 20245 ft | 358 kts | 11° |
| 2026-05-05 23:49 | 51.70858 | -113.71105 | 20704 ft | 360 kts | 11° |
| 2026-05-05 23:49 | 51.73311 | -113.70180 | 21143 ft | 363 kts | 11° |
| 2026-05-05 23:49 | 51.75783 | -113.69247 | 21572 ft | 366 kts | 11° |
| 2026-05-05 23:50 | 51.78272 | -113.68306 | 21994 ft | 369 kts | 11° |
| 2026-05-05 23:50 | 51.80784 | -113.67354 | 22412 ft | 372 kts | 11° |
| 2026-05-05 23:50 | 51.83308 | -113.66397 | 22812 ft | 374 kts | 11° |
| 2026-05-05 23:50 | 51.85859 | -113.65430 | 23134 ft | 379 kts | 11° |
| 2026-05-05 23:51 | 51.88437 | -113.64450 | 23537 ft | 381 kts | 11° |
| 2026-05-05 23:51 | 51.91027 | -113.63464 | 23911 ft | 383 kts | 11° |
| 2026-05-05 23:51 | 51.93631 | -113.62472 | 24272 ft | 385 kts | 11° |
| 2026-05-05 23:51 | 51.96238 | -113.61478 | 24653 ft | 385 kts | 11° |
| 2026-05-05 23:52 | 51.98852 | -113.60480 | 25079 ft | 386 kts | 11° |
| 2026-05-05 23:52 | 52.01461 | -113.59482 | 25495 ft | 385 kts | 11° |
| 2026-05-05 23:52 | 52.04072 | -113.58481 | 25791 ft | 386 kts | 11° |
| 2026-05-05 23:52 | 52.06698 | -113.57475 | 26082 ft | 389 kts | 11° |
| 2026-05-05 23:53 | 52.09334 | -113.56463 | 26372 ft | 390 kts | 11° |
| 2026-05-05 23:53 | 52.11981 | -113.55447 | 26651 ft | 392 kts | 11° |
| 2026-05-05 23:53 | 52.14655 | -113.54419 | 26856 ft | 395 kts | 11° |
| 2026-05-05 23:53 | 52.17335 | -113.53387 | 27178 ft | 396 kts | 11° |
| 2026-05-05 23:54 | 52.20010 | -113.52355 | 27573 ft | 395 kts | 10° |
| 2026-05-05 23:54 | 52.22677 | -113.51324 | 28096 ft | 391 kts | 10° |
| 2026-05-05 23:54 | 52.25314 | -113.50303 | 28594 ft | 388 kts | 10° |
| 2026-05-05 23:54 | 52.27936 | -113.49287 | 29026 ft | 387 kts | 10° |
| 2026-05-05 23:55 | 52.30546 | -113.48276 | 29397 ft | 386 kts | 10° |
| 2026-05-05 23:55 | 52.33170 | -113.47259 | 29673 ft | 388 kts | 10° |
| 2026-05-05 23:55 | 52.35804 | -113.46238 | 29951 ft | 390 kts | 10° |
| 2026-05-05 23:55 | 52.38444 | -113.45212 | 30280 ft | 391 kts | 10° |
| 2026-05-05 23:56 | 52.43748 | -113.43146 | 30241 ft | 391 kts | 10° |
| 2026-05-05 23:56 | 52.49010 | -113.41088 | 30241 ft | 388 kts | 10° |
| 2026-05-05 23:57 | 52.54213 | -113.39050 | 30242 ft | 386 kts | 10° |
| 2026-05-05 23:57 | 52.59436 | -113.37000 | 30240 ft | 386 kts | 10° |
| 2026-05-05 23:58 | 52.64660 | -113.34945 | 30244 ft | 386 kts | 10° |
| 2026-05-05 23:58 | 52.69887 | -113.32884 | 30232 ft | 388 kts | 10° |
| 2026-05-05 23:59 | 52.75237 | -113.31518 | 30249 ft | 390 kts | 0° |
| 2026-05-05 23:59 | 52.80642 | -113.32168 | 30251 ft | 390 kts | 352° |
| 2026-05-06 00:00 | 52.86030 | -113.33481 | 30263 ft | 391 kts | 352° |
| 2026-05-06 00:00 | 52.91418 | -113.34785 | 30250 ft | 391 kts | 352° |
| 2026-05-06 00:01 | 52.96791 | -113.36071 | 30234 ft | 390 kts | 352° |
| 2026-05-06 00:01 | 53.02124 | -113.37342 | 30236 ft | 389 kts | 352° |
| 2026-05-06 00:02 | 53.07521 | -113.38629 | 30238 ft | 389 kts | 352° |
| 2026-05-06 00:02 | 53.12846 | -113.39902 | 30255 ft | 389 kts | 352° |
| 2026-05-06 00:03 | 53.17329 | -113.40976 | 30251 ft | 388 kts | 352° |
| 2026-05-06 00:03 | 53.22684 | -113.42266 | 30246 ft | 388 kts | 352° |
| 2026-05-06 00:04 | 53.28000 | -113.43545 | 30245 ft | 388 kts | 352° |
| 2026-05-06 00:04 | 53.33350 | -113.44835 | 30164 ft | 389 kts | 352° |
| 2026-05-06 00:05 | 53.41392 | -113.46783 | 30179 ft | 389 kts | 352° |
| 2026-05-06 00:06 | 53.46751 | -113.48085 | 30222 ft | 389 kts | 351° |
| 2026-05-06 00:06 | 53.52093 | -113.49387 | 30231 ft | 390 kts | 351° |
| 2026-05-06 00:07 | 53.57454 | -113.50697 | 30232 ft | 390 kts | 351° |
| 2026-05-06 00:07 | 53.62844 | -113.52017 | 30235 ft | 390 kts | 351° |
| 2026-05-06 00:08 | 53.68225 | -113.53338 | 30243 ft | 391 kts | 351° |
| 2026-05-06 00:08 | 53.73645 | -113.54129 | 30253 ft | 392 kts | 356° |
| 2026-05-06 00:09 | 53.79112 | -113.54455 | 30234 ft | 392 kts | 357° |
| 2026-05-06 00:09 | 53.84557 | -113.54772 | 30234 ft | 391 kts | 356° |
| 2026-05-06 00:10 | 53.89949 | -113.55108 | 30252 ft | 390 kts | 356° |
| 2026-05-06 00:10 | 53.95376 | -113.55460 | 30247 ft | 390 kts | 356° |
| 2026-05-06 00:11 | 54.00789 | -113.55817 | 30234 ft | 389 kts | 356° |
| 2026-05-06 00:11 | 54.06205 | -113.56177 | 30243 ft | 390 kts | 356° |
| 2026-05-06 00:12 | 54.11636 | -113.56538 | 30243 ft | 390 kts | 356° |
| 2026-05-06 00:12 | 54.17068 | -113.56901 | 30244 ft | 390 kts | 356° |
| 2026-05-06 00:13 | 54.22495 | -113.57264 | 30241 ft | 390 kts | 356° |
| 2026-05-06 00:13 | 54.27922 | -113.57629 | 30238 ft | 391 kts | 356° |
| 2026-05-06 00:14 | 54.33366 | -113.57994 | 30238 ft | 391 kts | 356° |
| 2026-05-06 00:14 | 54.38779 | -113.58361 | 30285 ft | 392 kts | 356° |
| 2026-05-06 00:15 | 54.44244 | -113.58732 | 30241 ft | 393 kts | 356° |
| 2026-05-06 00:15 | 54.49711 | -113.59100 | 30235 ft | 393 kts | 356° |
| 2026-05-06 00:16 | 54.55167 | -113.59470 | 30238 ft | 392 kts | 356° |
| 2026-05-06 00:16 | 54.60622 | -113.59841 | 30236 ft | 392 kts | 356° |
| 2026-05-06 00:17 | 54.66065 | -113.60213 | 30237 ft | 392 kts | 356° |
| 2026-05-06 00:17 | 54.71508 | -113.60586 | 30232 ft | 392 kts | 356° |
| 2026-05-06 00:18 | 54.76961 | -113.60960 | 30229 ft | 392 kts | 356° |
| 2026-05-06 00:18 | 54.82413 | -113.61335 | 30223 ft | 392 kts | 356° |
| 2026-05-06 00:19 | 54.87862 | -113.61712 | 30229 ft | 392 kts | 356° |
| 2026-05-06 00:19 | 54.93312 | -113.62089 | 30228 ft | 392 kts | 356° |
| 2026-05-06 00:20 | 54.98763 | -113.62468 | 30222 ft | 392 kts | 356° |
| 2026-05-06 00:20 | 55.04196 | -113.62846 | 30227 ft | 393 kts | 356° |
| 2026-05-06 00:21 | 55.09666 | -113.63236 | 30226 ft | 394 kts | 356° |
| 2026-05-06 00:21 | 55.15154 | -113.63618 | 30218 ft | 394 kts | 356° |
| 2026-05-06 00:22 | 55.20634 | -113.63998 | 30233 ft | 394 kts | 356° |
| 2026-05-06 00:22 | 55.26110 | -113.64382 | 30216 ft | 394 kts | 356° |
| 2026-05-06 00:23 | 55.31587 | -113.64768 | 30220 ft | 393 kts | 356° |
| 2026-05-06 00:23 | 55.37061 | -113.65155 | 30210 ft | 393 kts | 355° |
| 2026-05-06 00:24 | 55.42530 | -113.65544 | 30215 ft | 393 kts | 355° |
| 2026-05-06 00:24 | 55.47970 | -113.65931 | 30208 ft | 394 kts | 355° |
| 2026-05-06 00:25 | 55.53446 | -113.66322 | 30206 ft | 394 kts | 355° |
| 2026-05-06 00:25 | 55.58924 | -113.66714 | 30208 ft | 394 kts | 355° |
| 2026-05-06 00:26 | 55.64408 | -113.67107 | 30205 ft | 394 kts | 355° |
| 2026-05-06 00:26 | 55.69892 | -113.67502 | 30212 ft | 395 kts | 355° |
| 2026-05-06 00:27 | 55.75392 | -113.67899 | 30197 ft | 396 kts | 355° |
| 2026-05-06 00:27 | 55.80902 | -113.68301 | 30207 ft | 396 kts | 355° |
| 2026-05-06 00:28 | 55.86412 | -113.68699 | 30197 ft | 396 kts | 355° |
| 2026-05-06 00:28 | 55.91914 | -113.69097 | 30178 ft | 395 kts | 355° |
| 2026-05-06 00:29 | 55.97396 | -113.69496 | 30181 ft | 394 kts | 355° |
| 2026-05-06 00:29 | 56.02886 | -113.69899 | 30199 ft | 394 kts | 355° |
| 2026-05-06 00:30 | 56.08371 | -113.70303 | 30186 ft | 395 kts | 355° |
| 2026-05-06 00:30 | 56.13851 | -113.70706 | 30192 ft | 395 kts | 355° |
| 2026-05-06 00:31 | 56.19298 | -113.71108 | 30160 ft | 395 kts | 355° |
| 2026-05-06 00:31 | 56.24767 | -113.71514 | 30181 ft | 396 kts | 355° |
| 2026-05-06 00:32 | 56.30274 | -113.71923 | 30177 ft | 397 kts | 355° |
| 2026-05-06 00:32 | 56.35795 | -113.72334 | 30180 ft | 397 kts | 355° |
| 2026-05-06 00:33 | 56.41333 | -113.72747 | 30171 ft | 398 kts | 355° |
| 2026-05-06 00:33 | 56.46866 | -113.73161 | 30166 ft | 398 kts | 355° |
| 2026-05-06 00:34 | 56.52407 | -113.73578 | 30173 ft | 398 kts | 355° |
| 2026-05-06 00:34 | 56.57943 | -113.73994 | 30160 ft | 397 kts | 355° |
| 2026-05-06 00:35 | 56.63445 | -113.74409 | 30161 ft | 395 kts | 355° |
| 2026-05-06 00:35 | 56.68889 | -113.74822 | 30165 ft | 394 kts | 355° |
| 2026-05-06 00:36 | 56.74356 | -113.75237 | 30164 ft | 392 kts | 355° |
| 2026-05-06 00:36 | 56.79809 | -113.75653 | 30153 ft | 392 kts | 355° |
| 2026-05-06 00:37 | 56.85269 | -113.76071 | 30162 ft | 393 kts | 355° |
| 2026-05-06 00:37 | 56.90738 | -113.76490 | 30148 ft | 394 kts | 355° |
| 2026-05-06 00:38 | 56.96220 | -113.76912 | 30157 ft | 395 kts | 355° |
| 2026-05-06 00:38 | 57.01682 | -113.77333 | 30147 ft | 395 kts | 355° |
| 2026-05-06 00:39 | 57.07194 | -113.77760 | 30142 ft | 396 kts | 355° |
| 2026-05-06 00:39 | 57.12708 | -113.78188 | 30136 ft | 397 kts | 355° |
| 2026-05-06 00:40 | 57.18252 | -113.78619 | 30143 ft | 399 kts | 355° |
| 2026-05-06 00:40 | 57.23799 | -113.79052 | 30129 ft | 400 kts | 355° |
| 2026-05-06 00:41 | 57.29365 | -113.79488 | 30120 ft | 401 kts | 355° |
| 2026-05-06 00:41 | 57.34948 | -113.79926 | 30112 ft | 401 kts | 355° |
| 2026-05-06 00:42 | 57.40525 | -113.80365 | 30127 ft | 401 kts | 355° |
| 2026-05-06 00:42 | 57.46098 | -113.80805 | 30121 ft | 401 kts | 355° |
| 2026-05-06 00:43 | 57.51680 | -113.81247 | 30125 ft | 401 kts | 355° |
| 2026-05-06 00:43 | 57.57267 | -113.81691 | 30111 ft | 401 kts | 355° |
| 2026-05-06 00:44 | 57.62842 | -113.82135 | 30112 ft | 401 kts | 354° |
| 2026-05-06 00:44 | 57.68413 | -113.82580 | 30118 ft | 401 kts | 354° |
| 2026-05-06 00:45 | 57.73948 | -113.83025 | 30114 ft | 401 kts | 354° |
| 2026-05-06 00:45 | 57.79526 | -113.83474 | 30115 ft | 401 kts | 354° |
| 2026-05-06 00:46 | 57.85107 | -113.83924 | 30120 ft | 401 kts | 354° |
| 2026-05-06 00:46 | 57.90693 | -113.84376 | 30116 ft | 402 kts | 354° |
| 2026-05-06 00:47 | 57.96272 | -113.84835 | 30128 ft | 400 kts | 354° |
| 2026-05-06 00:47 | 58.01823 | -113.85284 | 30120 ft | 398 kts | 354° |
| 2026-05-06 00:48 | 58.07353 | -113.85733 | 30117 ft | 397 kts | 354° |
| 2026-05-06 00:48 | 58.11938 | -113.86108 | 30120 ft | 396 kts | 354° |
| 2026-05-06 00:49 | 58.17442 | -113.86561 | 30121 ft | 396 kts | 354° |
| 2026-05-06 00:49 | 58.22955 | -113.87017 | 30122 ft | 397 kts | 354° |
| 2026-05-06 00:50 | 58.28490 | -113.87476 | 30137 ft | 399 kts | 354° |
| 2026-05-06 00:50 | 58.34046 | -113.87937 | 30132 ft | 401 kts | 354° |
| 2026-05-06 00:51 | 58.39631 | -113.88401 | 30131 ft | 402 kts | 354° |
| 2026-05-06 00:51 | 58.45236 | -113.88869 | 30128 ft | 404 kts | 354° |
| 2026-05-06 00:52 | 58.50850 | -113.89339 | 30126 ft | 405 kts | 354° |
| 2026-05-06 00:52 | 58.56487 | -113.89812 | 30143 ft | 405 kts | 354° |
| 2026-05-06 00:53 | 58.62135 | -113.90262 | 30131 ft | 406 kts | 354° |
| 2026-05-06 00:53 | 58.67790 | -113.90734 | 30178 ft | 406 kts | 354° |
| 2026-05-06 00:54 | 58.73381 | -113.91204 | 30137 ft | 399 kts | 354° |
| 2026-05-06 00:54 | 58.78932 | -113.91679 | 30133 ft | 399 kts | 354° |
| 2026-05-06 00:55 | 58.84488 | -113.92158 | 30137 ft | 400 kts | 354° |
| 2026-05-06 00:55 | 58.90058 | -113.92636 | 30133 ft | 401 kts | 354° |
| 2026-05-06 00:56 | 58.95643 | -113.93114 | 30137 ft | 402 kts | 354° |
| 2026-05-06 00:56 | 59.01240 | -113.93598 | 30129 ft | 403 kts | 354° |
| 2026-05-06 00:57 | 59.06858 | -113.94086 | 30124 ft | 404 kts | 354° |
| 2026-05-06 00:57 | 59.12483 | -113.94574 | 30108 ft | 405 kts | 354° |
| 2026-05-06 00:58 | 59.18122 | -113.95066 | 30116 ft | 406 kts | 353° |
| 2026-05-06 00:58 | 59.23768 | -113.95578 | 30112 ft | 407 kts | 353° |
| 2026-05-06 00:59 | 59.29381 | -113.96078 | 30112 ft | 408 kts | 354° |
| 2026-05-06 00:59 | 59.35053 | -113.96577 | 30113 ft | 408 kts | 354° |
| 2026-05-06 01:00 | 59.40679 | -113.97072 | 30095 ft | 408 kts | 353° |
| 2026-05-06 01:00 | 59.46343 | -113.97573 | 30122 ft | 403 kts | 354° |
| 2026-05-06 01:01 | 59.51849 | -113.98058 | 30115 ft | 400 kts | 354° |
| 2026-05-06 01:01 | 59.57415 | -113.98556 | 30106 ft | 401 kts | 354° |
| 2026-05-06 01:02 | 59.62995 | -113.99056 | 30105 ft | 401 kts | 354° |
| 2026-05-06 01:02 | 59.68583 | -113.99558 | 30104 ft | 402 kts | 354° |
| 2026-05-06 01:03 | 59.74173 | -114.00062 | 30098 ft | 403 kts | 353° |
| 2026-05-06 01:03 | 59.79774 | -114.00568 | 30118 ft | 404 kts | 353° |
| 2026-05-06 01:04 | 59.85377 | -114.01076 | 30111 ft | 406 kts | 353° |
| 2026-05-06 01:04 | 59.91027 | -114.01589 | 30108 ft | 407 kts | 353° |
| 2026-05-06 01:05 | 59.96688 | -114.02106 | 30110 ft | 408 kts | 353° |
| 2026-05-06 01:05 | 60.02367 | -114.02625 | 30103 ft | 408 kts | 353° |
| 2026-05-06 01:06 | 60.08543 | -114.03195 | 30114 ft | 409 kts | 353° |
| 2026-05-06 01:06 | 60.14226 | -114.03718 | 30103 ft | 409 kts | 353° |
| 2026-05-06 01:07 | 60.19876 | -114.04758 | 30112 ft | 407 kts | 349° |
| 2026-05-06 01:07 | 60.25436 | -114.06135 | 30105 ft | 401 kts | 350° |
| 2026-05-06 01:08 | 60.30979 | -114.07485 | 30098 ft | 401 kts | 350° |
| 2026-05-06 01:08 | 60.36525 | -114.08791 | 30096 ft | 403 kts | 350° |
| 2026-05-06 01:09 | 60.42139 | -114.10096 | 30115 ft | 407 kts | 350° |
| 2026-05-06 01:09 | 60.47776 | -114.11400 | 30097 ft | 408 kts | 350° |
| 2026-05-06 01:10 | 60.53416 | -114.12707 | 30098 ft | 408 kts | 350° |
| 2026-05-06 01:10 | 60.58097 | -114.13796 | 30102 ft | 408 kts | 350° |
| 2026-05-06 01:11 | 60.63733 | -114.15111 | 30102 ft | 407 kts | 350° |
| 2026-05-06 01:11 | 60.69363 | -114.16431 | 30098 ft | 407 kts | 349° |
| 2026-05-06 01:12 | 60.74997 | -114.17757 | 30095 ft | 407 kts | 349° |
| 2026-05-06 01:12 | 60.80618 | -114.19084 | 30108 ft | 407 kts | 349° |
| 2026-05-06 01:13 | 60.86252 | -114.20419 | 30104 ft | 407 kts | 349° |
| 2026-05-06 01:13 | 60.91875 | -114.21756 | 30103 ft | 407 kts | 349° |
| 2026-05-06 01:14 | 61.00320 | -114.23772 | 30105 ft | 408 kts | 349° |
| 2026-05-06 01:14 | 61.00622 | -114.23845 | 30105 ft | 408 kts | 349° |
| 2026-05-06 01:15 | 61.04290 | -114.24719 | 30087 ft | 391 kts | 349° |
| 2026-05-06 01:16 | 61.09737 | -114.26029 | 30121 ft | 400 kts | 349° |
| 2026-05-06 01:16 | 61.15339 | -114.27402 | 30140 ft | 409 kts | 349° |
| 2026-05-06 01:17 | 61.20987 | -114.28767 | 29472 ft | 410 kts | 350° |
| 2026-05-06 01:17 | 61.23803 | -114.29445 | 28765 ft | 406 kts | 350° |
| 2026-05-06 01:17 | 61.26602 | -114.30122 | 28198 ft | 402 kts | 350° |
| 2026-05-06 01:18 | 61.29366 | -114.30791 | 27593 ft | 398 kts | 350° |
| 2026-05-06 01:18 | 61.32107 | -114.31458 | 27036 ft | 395 kts | 350° |
| 2026-05-06 01:18 | 61.34817 | -114.32120 | 26485 ft | 391 kts | 350° |
| 2026-05-06 01:18 | 61.37513 | -114.32780 | 25941 ft | 388 kts | 350° |
| 2026-05-06 01:19 | 61.40191 | -114.33438 | 25394 ft | 386 kts | 350° |
| 2026-05-06 01:19 | 61.42847 | -114.34091 | 24865 ft | 384 kts | 351° |
| 2026-05-06 01:19 | 61.45504 | -114.34747 | 24309 ft | 383 kts | 351° |
| 2026-05-06 01:19 | 61.48144 | -114.35399 | 23764 ft | 382 kts | 351° |
| 2026-05-06 01:20 | 61.50783 | -114.36052 | 23143 ft | 381 kts | 351° |
| 2026-05-06 01:20 | 61.53407 | -114.36702 | 22576 ft | 378 kts | 351° |
| 2026-05-06 01:20 | 61.56006 | -114.37346 | 22021 ft | 375 kts | 351° |
| 2026-05-06 01:20 | 61.58593 | -114.37989 | 21483 ft | 373 kts | 351° |
| 2026-05-06 01:21 | 61.61157 | -114.38627 | 20967 ft | 370 kts | 351° |
| 2026-05-06 01:21 | 61.63717 | -114.39264 | 20445 ft | 368 kts | 351° |
| 2026-05-06 01:21 | 61.66222 | -114.39890 | 19937 ft | 366 kts | 351° |
| 2026-05-06 01:21 | 61.68746 | -114.40521 | 19434 ft | 364 kts | 351° |
| 2026-05-06 01:22 | 61.71290 | -114.41158 | 18916 ft | 363 kts | 352° |
| 2026-05-06 01:22 | 61.73762 | -114.41779 | 18398 ft | 362 kts | 352° |
| 2026-05-06 01:22 | 61.76252 | -114.42405 | 17818 ft | 360 kts | 352° |
| 2026-05-06 01:22 | 61.78734 | -114.43029 | 17282 ft | 357 kts | 352° |
| 2026-05-06 01:23 | 61.81192 | -114.43649 | 16734 ft | 356 kts | 352° |
| 2026-05-06 01:23 | 61.83655 | -114.44271 | 16180 ft | 355 kts | 352° |
| 2026-05-06 01:23 | 61.86098 | -114.44889 | 15661 ft | 352 kts | 352° |
| 2026-05-06 01:23 | 61.88520 | -114.45503 | 15155 ft | 350 kts | 352° |
| 2026-05-06 01:24 | 61.90923 | -114.46112 | 14667 ft | 348 kts | 352° |
| 2026-05-06 01:24 | 61.93319 | -114.46721 | 14192 ft | 346 kts | 352° |
| 2026-05-06 01:24 | 61.95711 | -114.47330 | 13671 ft | 345 kts | 352° |
| 2026-05-06 01:24 | 61.98085 | -114.47935 | 13129 ft | 343 kts | 352° |
| 2026-05-06 01:25 | 62.00446 | -114.48538 | 12631 ft | 341 kts | 352° |
| 2026-05-06 01:25 | 62.02794 | -114.49138 | 12119 ft | 339 kts | 352° |
| 2026-05-06 01:25 | 62.05134 | -114.49737 | 11635 ft | 338 kts | 352° |
| 2026-05-06 01:25 | 62.07461 | -114.50333 | 11171 ft | 336 kts | 352° |
| 2026-05-06 01:26 | 62.09756 | -114.50922 | 10979 ft | 327 kts | 352° |
| 2026-05-06 01:26 | 62.11985 | -114.51494 | 10795 ft | 317 kts | 352° |
| 2026-05-06 01:26 | 62.14145 | -114.52049 | 10646 ft | 308 kts | 352° |
| 2026-05-06 01:26 | 62.16239 | -114.52589 | 10511 ft | 299 kts | 352° |
| 2026-05-06 01:27 | 62.18246 | -114.53108 | 10368 ft | 290 kts | 351° |
| 2026-05-06 01:27 | 62.20246 | -114.53626 | 10256 ft | 282 kts | 351° |
| 2026-05-06 01:27 | 62.22140 | -114.54118 | 10130 ft | 274 kts | 351° |
| 2026-05-06 01:27 | 62.24010 | -114.54603 | 9990 ft | 267 kts | 352° |
| 2026-05-06 01:28 | 62.25851 | -114.55078 | 9677 ft | 266 kts | 352° |
| 2026-05-06 01:28 | 62.27685 | -114.55557 | 9392 ft | 265 kts | 351° |
| 2026-05-06 01:28 | 62.29511 | -114.56036 | 9094 ft | 264 kts | 351° |
| 2026-05-06 01:28 | 62.31336 | -114.56511 | 8800 ft | 264 kts | 352° |
| 2026-05-06 01:29 | 62.33157 | -114.56990 | 8503 ft | 263 kts | 352° |
| 2026-05-06 01:29 | 62.34977 | -114.57466 | 8195 ft | 264 kts | 352° |
| 2026-05-06 01:29 | 62.36802 | -114.57944 | 7884 ft | 265 kts | 352° |
| 2026-05-06 01:29 | 62.38637 | -114.58422 | 7566 ft | 266 kts | 352° |
| 2026-05-06 01:30 | 62.40480 | -114.58904 | 7240 ft | 268 kts | 352° |
| 2026-05-06 01:30 | 62.42344 | -114.59395 | 6908 ft | 270 kts | 352° |
| 2026-05-06 01:30 | 62.44221 | -114.59891 | 6542 ft | 275 kts | 352° |
| 2026-05-06 01:30 | 62.46129 | -114.60393 | 6178 ft | 276 kts | 352° |
| 2026-05-06 01:31 | 62.48039 | -114.60891 | 5893 ft | 276 kts | 353° |
| 2026-05-06 01:31 | 62.49942 | -114.61394 | 5629 ft | 275 kts | 352° |
| 2026-05-06 01:31 | 62.51827 | -114.61895 | 5417 ft | 271 kts | 353° |
| 2026-05-06 01:31 | 62.53690 | -114.62385 | 5232 ft | 267 kts | 352° |
| 2026-05-06 01:32 | 62.55217 | -114.62790 | 5171 ft | 260 kts | 352° |
| 2026-05-06 01:32 | 62.56998 | -114.63264 | 5069 ft | 253 kts | 352° |
| 2026-05-06 01:32 | 62.58718 | -114.63721 | 4998 ft | 245 kts | 353° |
| 2026-05-06 01:32 | 62.60382 | -114.64145 | 4931 ft | 236 kts | 356° |
| 2026-05-06 01:33 | 62.61948 | -114.63474 | 4785 ft | 231 kts | 33° |
| 2026-05-06 01:33 | 62.63052 | -114.61109 | 4606 ft | 219 kts | 64° |
| 2026-05-06 01:33 | 62.63542 | -114.58106 | 4401 ft | 205 kts | 87° |
| 2026-05-06 01:33 | 62.63658 | -114.55086 | 4207 ft | 196 kts | 90° |
| 2026-05-06 01:34 | 62.63754 | -114.52187 | 4003 ft | 189 kts | 90° |
| 2026-05-06 01:34 | 62.63697 | -114.49433 | 3779 ft | 176 kts | 116° |
| 2026-05-06 01:34 | 62.62983 | -114.47487 | 3684 ft | 168 kts | 148° |
| 2026-05-06 01:34 | 62.61893 | -114.46689 | 3474 ft | 166 kts | 175° |
| 2026-05-06 01:35 | 62.60755 | -114.46498 | 3284 ft | 160 kts | 174° |
| 2026-05-06 01:35 | 62.59708 | -114.46322 | 3103 ft | 144 kts | 174° |
| 2026-05-06 01:35 | 62.58741 | -114.46163 | 2927 ft | 137 kts | 174° |
| 2026-05-06 01:35 | 62.57785 | -114.46012 | 2708 ft | 137 kts | 174° |
| 2026-05-06 01:36 | 62.56837 | -114.45864 | 2544 ft | 138 kts | 174° |
| 2026-05-06 01:36 | 62.55873 | -114.45713 | 2354 ft | 140 kts | 174° |
| 2026-05-06 01:36 | 62.54914 | -114.45565 | 2169 ft | 137 kts | 174° |
| 2026-05-06 01:36 | 62.53953 | -114.45415 | 1980 ft | 140 kts | 173° |
| 2026-05-06 01:37 | 62.52978 | -114.45263 | 1779 ft | 140 kts | 173° |
| 2026-05-06 01:37 | 62.52003 | -114.45112 | 1585 ft | 141 kts | 173° |
| 2026-05-06 01:37 | 62.51015 | -114.44960 | 1388 ft | 143 kts | 173° |
| 2026-05-06 01:37 | 62.50024 | -114.44808 | 1219 ft | 142 kts | 173° |
| 2026-05-06 01:38 | 62.49047 | -114.44660 | 1028 ft | 139 kts | 172° |
| 2026-05-06 01:38 | 62.48084 | -114.44512 | 865 ft | 140 kts | 172° |
| 2026-05-06 01:38 | 62.47088 | -114.44382 | 720 ft | 142 kts | 173° |
| 2026-05-06 01:38 | 62.46177 | -114.44246 | 678 ft | 118 kts | 168° |
| 2026-05-06 01:39 | 62.45598 | -114.44083 | 675 ft | 55 kts | 178° |
| 2026-05-06 01:39 | 62.45391 | -114.44088 | 675 ft | 22 kts | 186° |
| 2026-05-06 01:39 | 62.45291 | -114.44049 | 676 ft | 13 kts | 104° |
| 2026-05-06 01:39 | 62.45341 | -114.43955 | 676 ft | 10 kts | 346° |
| 2026-05-06 01:40 | 62.45382 | -114.44070 | 676 ft | 10 kts | 327° |
| 2026-05-06 01:40 | 62.45450 | -114.44098 | 675 ft | 10 kts | 355° |
| 2026-05-06 01:40 | 62.45518 | -114.44110 | 672 ft | 10 kts | 356° |
| 2026-05-06 01:40 | 62.45576 | -114.44119 | 672 ft | 12 kts | 356° |
| 2026-05-06 01:41 | 62.45694 | -114.44135 | 674 ft | 19 kts | 356° |
| 2026-05-06 01:41 | 62.45839 | -114.44157 | 677 ft | 23 kts | 356° |
| 2026-05-06 01:41 | 62.46000 | -114.44179 | 679 ft | 23 kts | 356° |
| 2026-05-06 01:41 | 62.46157 | -114.44205 | 677 ft | 22 kts | 355° |
| 2026-05-06 01:42 | 62.46309 | -114.44229 | 676 ft | 22 kts | 356° |
| 2026-05-06 01:42 | 62.46455 | -114.44247 | 677 ft | 21 kts | 357° |
| 2026-05-06 01:42 | 62.46599 | -114.44262 | 677 ft | 20 kts | 358° |
| 2026-05-06 01:42 | 62.46738 | -114.44280 | 676 ft | 20 kts | 355° |
| 2026-05-06 01:43 | 62.46873 | -114.44285 | 678 ft | 19 kts | 17° |
| 2026-05-06 01:43 | 62.46960 | -114.44079 | 675 ft | 18 kts | 55° |
| 2026-05-06 01:43 | 62.46954 | -114.43843 | 678 ft | 16 kts | 118° |
| 2026-05-06 01:43 | 62.46900 | -114.43630 | 678 ft | 16 kts | 117° |
| 2026-05-06 01:44 | 62.46930 | -114.43513 | 678 ft | 9 kts | 24° |
| 2026-05-06 01:44 | 62.46935 | -114.43508 | 676 ft | 0 kts | 24° |